createdAt,value
2022-08-29T00:00:17.870Z,12.46
2022-08-29T00:02:49.970Z,12.40
2022-08-29T00:05:18.746Z,12.43
2022-08-29T00:07:45.633Z,12.33
2022-08-29T00:10:12.358Z,12.37
2022-08-29T00:12:39.296Z,12.38
2022-08-29T00:15:08.005Z,12.28
2022-08-29T00:17:34.719Z,12.13
2022-08-29T00:20:01.531Z,11.97
2022-08-29T00:22:28.056Z,11.99
2022-08-29T00:24:54.509Z,12.00
2022-08-29T00:27:21.202Z,11.99
2022-08-29T00:29:47.610Z,12.15
2022-08-29T00:32:14.070Z,12.13
2022-08-29T00:34:40.453Z,12.21
2022-08-29T00:37:06.961Z,12.29
2022-08-29T00:39:33.902Z,12.36
2022-08-29T00:42:01.481Z,12.12
2022-08-29T00:44:28.608Z,12.10
2022-08-29T00:46:58.769Z,11.94
2022-08-29T00:49:41.546Z,11.84
2022-08-29T00:52:32.454Z,11.77
2022-08-29T00:55:01.998Z,11.89
2022-08-29T00:57:35.218Z,11.71
2022-08-29T01:00:02.117Z,11.69
2022-08-29T01:02:28.587Z,11.58
2022-08-29T01:04:59.406Z,11.60
2022-08-29T01:07:28.786Z,11.56
2022-08-29T01:09:55.213Z,11.62
2022-08-29T01:12:23.265Z,11.72
2022-08-29T01:14:56.804Z,11.68
2022-08-29T01:17:31.008Z,11.52
2022-08-29T01:20:12.078Z,11.52
2022-08-29T01:23:27.703Z,11.52
2022-08-29T01:25:55.287Z,11.40
2022-08-29T01:28:26.001Z,11.49
2022-08-29T01:31:10.711Z,11.48
2022-08-29T01:33:39.793Z,11.45
2022-08-29T01:36:08.045Z,11.44
2022-08-29T01:38:34.438Z,11.21
2022-08-29T01:41:00.984Z,11.16
2022-08-29T01:43:28.082Z,11.24
2022-08-29T01:45:54.636Z,11.24
2022-08-29T01:48:21.933Z,11.05
2022-08-29T01:50:48.372Z,10.92
2022-08-29T01:53:15.178Z,11.00
2022-08-29T01:55:42.752Z,10.94
2022-08-29T01:58:09.273Z,10.96
2022-08-29T02:00:36.035Z,10.92
2022-08-29T02:03:03.225Z,10.93
2022-08-29T02:05:30.976Z,10.94
2022-08-29T02:07:58.000Z,10.87
2022-08-29T02:10:25.023Z,10.71
2022-08-29T02:12:52.109Z,10.69
2022-08-29T02:15:18.996Z,10.74
2022-08-29T02:17:45.815Z,10.71
2022-08-29T02:20:15.260Z,10.73
2022-08-29T02:22:42.234Z,10.76
2022-08-29T02:25:28.797Z,10.79
2022-08-29T02:27:55.484Z,10.80
2022-08-29T02:30:22.975Z,10.82
2022-08-29T02:32:50.472Z,10.85
2022-08-29T02:35:17.272Z,10.83
2022-08-29T02:37:44.105Z,10.74
2022-08-29T02:40:11.049Z,10.61
2022-08-29T02:42:38.271Z,10.55
2022-08-29T02:45:05.793Z,10.54
2022-08-29T02:47:36.499Z,10.48
2022-08-29T02:50:05.985Z,10.48
2022-08-29T02:52:37.094Z,10.56
2022-08-29T02:55:04.125Z,10.48
2022-08-29T02:57:30.878Z,10.46
2022-08-29T02:59:57.296Z,10.49
2022-08-29T03:02:23.837Z,10.42
2022-08-29T03:04:53.545Z,10.49
2022-08-29T03:07:20.036Z,10.46
2022-08-29T03:09:46.635Z,10.45
2022-08-29T03:12:13.121Z,10.45
2022-08-29T03:14:39.608Z,10.42
2022-08-29T03:17:06.023Z,10.50
2022-08-29T03:19:32.518Z,10.44
2022-08-29T03:22:04.139Z,10.41
2022-08-29T03:24:30.903Z,10.42
2022-08-29T03:26:58.895Z,10.27
2022-08-29T03:29:25.680Z,10.20
2022-08-29T03:31:52.438Z,10.21
2022-08-29T03:34:18.833Z,10.24
2022-08-29T03:36:45.245Z,10.17
2022-08-29T03:39:11.632Z,10.20
2022-08-29T03:41:38.024Z,10.12
2022-08-29T03:44:04.500Z,10.20
2022-08-29T03:46:30.979Z,10.17
2022-08-29T03:48:57.433Z,10.14
2022-08-29T03:51:25.040Z,10.13
2022-08-29T03:53:55.741Z,10.01
2022-08-29T03:56:22.194Z,10.09
2022-08-29T03:58:52.933Z,9.99
2022-08-29T04:01:28.727Z,9.93
2022-08-29T04:03:57.110Z,9.92
2022-08-29T04:06:25.275Z,9.92
2022-08-29T04:08:52.230Z,10.01
2022-08-29T04:11:19.762Z,9.94
2022-08-29T04:13:48.337Z,9.93
2022-08-29T04:16:18.197Z,9.95
2022-08-29T04:18:44.685Z,9.82
2022-08-29T04:21:11.514Z,9.84
2022-08-29T04:23:39.608Z,9.95
2022-08-29T04:26:35.551Z,9.84
2022-08-29T04:28:59.539Z,9.80
2022-08-29T04:31:26.345Z,9.86
2022-08-29T04:33:52.926Z,9.85
2022-08-29T04:36:19.661Z,9.79
2022-08-29T04:38:46.109Z,9.76
2022-08-29T04:41:15.875Z,9.81
2022-08-29T04:43:45.285Z,9.80
2022-08-29T04:46:23.517Z,9.84
2022-08-29T04:48:51.762Z,9.84
2022-08-29T04:51:18.165Z,9.86
2022-08-29T04:53:44.614Z,9.88
2022-08-29T04:56:12.415Z,9.94
2022-08-29T04:58:40.917Z,9.91
2022-08-29T05:01:16.936Z,9.98
2022-08-29T05:03:44.234Z,10.04
2022-08-29T05:06:13.261Z,10.08
2022-08-29T05:08:42.190Z,10.07
2022-08-29T05:11:14.846Z,10.15
2022-08-29T05:13:49.646Z,10.09
2022-08-29T05:16:17.694Z,10.16
2022-08-29T05:18:46.164Z,10.15
2022-08-29T05:21:13.764Z,10.17
2022-08-29T05:23:40.333Z,10.38
2022-08-29T05:26:06.732Z,10.36
2022-08-29T05:28:35.462Z,10.42
2022-08-29T05:31:02.312Z,10.35
2022-08-29T05:33:28.930Z,10.49
2022-08-29T05:35:55.396Z,10.56
2022-08-29T05:38:21.850Z,10.67
2022-08-29T05:40:48.365Z,10.81
2022-08-29T05:43:14.742Z,11.00
2022-08-29T05:45:41.780Z,11.09
2022-08-29T05:48:09.585Z,11.17
2022-08-29T05:50:41.857Z,11.34
2022-08-29T05:53:13.346Z,11.56
2022-08-29T05:55:44.175Z,11.66
2022-08-29T05:58:12.475Z,11.91
2022-08-29T06:00:41.014Z,11.77
2022-08-29T06:03:07.514Z,11.99
2022-08-29T06:05:34.059Z,12.16
2022-08-29T06:08:01.181Z,12.15
2022-08-29T06:10:28.284Z,12.38
2022-08-29T06:12:54.795Z,12.31
2022-08-29T06:15:22.443Z,13.03
2022-08-29T06:17:49.443Z,13.67
2022-08-29T06:20:15.880Z,14.22
2022-08-29T06:22:42.612Z,14.74
2022-08-29T06:25:28.304Z,14.07
2022-08-29T06:27:55.887Z,13.79
2022-08-29T06:30:22.325Z,14.61
2022-08-29T06:32:48.982Z,15.94
2022-08-29T06:35:15.950Z,17.14
2022-08-29T06:37:42.784Z,17.06
2022-08-29T06:40:09.957Z,18.21
2022-08-29T06:42:36.503Z,18.58
2022-08-29T06:45:03.883Z,18.35
2022-08-29T06:47:31.101Z,18.66
2022-08-29T06:49:57.582Z,18.37
2022-08-29T06:52:23.963Z,17.60
2022-08-29T06:54:51.321Z,19.09
2022-08-29T06:57:19.226Z,19.36
2022-08-29T06:59:45.623Z,19.71
2022-08-29T07:02:12.038Z,19.92
2022-08-29T07:04:39.117Z,20.00
2022-08-29T07:07:05.581Z,20.15
2022-08-29T07:09:32.316Z,20.85
2022-08-29T07:11:58.748Z,21.54
2022-08-29T07:14:25.186Z,21.57
2022-08-29T07:16:51.584Z,20.57
2022-08-29T07:19:18.012Z,21.40
2022-08-29T07:21:44.438Z,20.99
2022-08-29T07:24:10.982Z,21.48
2022-08-29T07:26:42.392Z,21.66
2022-08-29T07:29:12.855Z,21.42
2022-08-29T07:31:41.331Z,22.06
2022-08-29T07:34:08.268Z,22.44
2022-08-29T07:36:35.208Z,22.20
2022-08-29T07:39:04.004Z,20.73
2022-08-29T07:41:31.063Z,20.96
2022-08-29T07:43:57.857Z,20.92
2022-08-29T07:46:25.644Z,21.37
2022-08-29T07:48:53.203Z,21.38
2022-08-29T07:51:22.944Z,22.09
2022-08-29T07:53:51.422Z,22.84
2022-08-29T07:56:22.734Z,21.99
2022-08-29T07:58:51.579Z,22.96
2022-08-29T08:01:21.578Z,23.71
2022-08-29T08:03:50.285Z,23.82
2022-08-29T08:06:18.075Z,23.82
2022-08-29T08:08:44.576Z,24.62
2022-08-29T08:11:12.273Z,25.41
2022-08-29T08:13:39.220Z,23.51
2022-08-29T08:16:07.762Z,24.09
2022-08-29T08:18:36.656Z,24.72
2022-08-29T08:21:03.301Z,24.31
2022-08-29T08:23:31.464Z,23.68
2022-08-29T08:25:58.196Z,25.06
2022-08-29T08:28:24.659Z,25.53
2022-08-29T08:30:51.173Z,24.89
2022-08-29T08:33:17.657Z,25.89
2022-08-29T08:35:46.916Z,26.90
2022-08-29T08:38:13.861Z,26.66
2022-08-29T08:40:45.995Z,25.65
2022-08-29T08:43:20.746Z,26.76
2022-08-29T08:45:55.370Z,25.04
2022-08-29T08:48:25.919Z,26.28
2022-08-29T08:51:03.462Z,25.94
2022-08-29T08:53:36.297Z,26.89
2022-08-29T08:56:19.584Z,26.72
2022-08-29T08:59:05.201Z,26.47
2022-08-29T09:01:48.060Z,24.96
2022-08-29T09:04:37.616Z,26.40
2022-08-29T09:07:33.435Z,27.29
2022-08-29T09:10:18.584Z,26.28
2022-08-29T09:13:05.288Z,25.69
2022-08-29T09:15:39.518Z,26.71
2022-08-29T09:18:13.670Z,27.39
2022-08-29T09:20:41.120Z,26.70
2022-08-29T09:23:24.074Z,27.07
2022-08-29T09:25:50.624Z,27.12
2022-08-29T09:28:17.596Z,27.02
2022-08-29T09:31:05.393Z,28.02
2022-08-29T09:33:53.113Z,28.59
2022-08-29T09:36:47.938Z,27.59
2022-08-29T09:39:32.804Z,27.75
2022-08-29T09:42:17.458Z,28.18
2022-08-29T09:44:54.139Z,27.39
2022-08-29T09:47:24.135Z,27.43
2022-08-29T09:50:17.441Z,29.33
2022-08-29T09:52:55.359Z,28.30
2022-08-29T09:55:22.196Z,27.09
2022-08-29T09:57:52.408Z,27.20
2022-08-29T10:00:26.308Z,26.45
2022-08-29T10:02:57.280Z,26.94
2022-08-29T10:05:33.781Z,27.39
2022-08-29T10:08:01.755Z,28.03
2022-08-29T10:10:33.021Z,28.12
2022-08-29T10:13:03.281Z,27.86
2022-08-29T10:15:49.990Z,27.46
2022-08-29T10:18:28.619Z,28.01
2022-08-29T10:21:14.514Z,27.75
2022-08-29T10:23:50.987Z,25.15
2022-08-29T10:26:56.053Z,25.61
2022-08-29T10:29:38.720Z,27.33
2022-08-29T10:32:32.372Z,27.08
2022-08-29T10:35:21.716Z,26.29
2022-08-29T10:38:14.252Z,26.91
2022-08-29T10:40:52.338Z,27.40
2022-08-29T10:43:31.424Z,28.14
2022-08-29T10:46:18.501Z,27.98
2022-08-29T10:49:24.547Z,28.54
2022-08-29T10:51:53.701Z,26.33
2022-08-29T10:54:27.573Z,26.72
2022-08-29T10:56:54.791Z,27.25
2022-08-29T10:59:45.759Z,27.27
2022-08-29T11:02:33.745Z,27.43
2022-08-29T11:05:07.036Z,28.66
2022-08-29T11:08:15.384Z,28.37
2022-08-29T11:10:45.861Z,28.20
2022-08-29T11:13:20.840Z,27.47
2022-08-29T11:16:02.749Z,28.27
2022-08-29T11:18:36.609Z,30.43
2022-08-29T11:21:30.097Z,29.52
2022-08-29T11:23:58.412Z,29.42
2022-08-29T11:26:43.096Z,29.70
2022-08-29T11:29:48.119Z,28.29
2022-08-29T11:32:51.780Z,29.69
2022-08-29T11:35:27.150Z,27.88
2022-08-29T11:38:14.972Z,27.38
2022-08-29T11:41:27.153Z,27.40
2022-08-29T11:43:59.551Z,28.26
2022-08-29T11:46:37.912Z,28.48
2022-08-29T11:49:46.607Z,28.83
2022-08-29T11:52:12.913Z,27.72
2022-08-29T11:54:40.086Z,29.64
2022-08-29T11:57:09.214Z,28.26
2022-08-29T11:59:54.714Z,30.26
2022-08-29T12:02:27.377Z,30.10
2022-08-29T12:04:54.002Z,28.17
2022-08-29T12:07:32.886Z,29.53
2022-08-29T12:10:00.473Z,30.96
2022-08-29T12:12:37.918Z,30.08
2022-08-29T12:15:32.602Z,30.73
2022-08-29T12:18:03.285Z,28.47
2022-08-29T12:20:30.294Z,27.53
2022-08-29T12:23:01.835Z,27.19
2022-08-29T12:25:30.631Z,29.35
2022-08-29T12:28:15.938Z,29.50
2022-08-29T12:31:06.998Z,30.30
2022-08-29T12:34:08.474Z,30.50
2022-08-29T12:37:28.578Z,28.24
2022-08-29T12:40:26.737Z,30.60
2022-08-29T12:43:14.086Z,30.60
2022-08-29T12:45:46.274Z,29.88
2022-08-29T12:48:21.789Z,27.82
2022-08-29T12:50:50.545Z,27.68
2022-08-29T12:53:33.423Z,27.70
2022-08-29T12:56:02.908Z,29.70
2022-08-29T12:58:53.226Z,31.20
2022-08-29T13:01:30.940Z,32.14
2022-08-29T13:04:05.508Z,31.70
2022-08-29T13:06:33.482Z,32.14
2022-08-29T13:09:00.515Z,32.94
2022-08-29T13:11:29.728Z,32.78
2022-08-29T13:14:08.722Z,32.75
2022-08-29T13:16:35.343Z,34.37
2022-08-29T13:19:10.935Z,33.33
2022-08-29T13:21:38.118Z,33.95
2022-08-29T13:24:11.548Z,31.73
2022-08-29T13:26:42.980Z,32.03
2022-08-29T13:29:39.958Z,31.27
2022-08-29T13:32:11.722Z,29.33
2022-08-29T13:34:38.310Z,30.14
2022-08-29T13:37:10.494Z,30.21
2022-08-29T13:39:46.621Z,30.14
2022-08-29T13:42:20.041Z,29.47
2022-08-29T13:44:49.680Z,28.90
2022-08-29T13:47:22.273Z,28.37
2022-08-29T13:49:49.537Z,28.43
2022-08-29T13:52:17.997Z,28.09
2022-08-29T13:54:44.827Z,27.76
2022-08-29T13:57:24.476Z,26.47
2022-08-29T13:59:51.015Z,26.95
2022-08-29T14:02:18.356Z,27.31
2022-08-29T14:04:49.776Z,27.48
2022-08-29T14:07:21.092Z,27.20
2022-08-29T14:09:49.019Z,27.34
2022-08-29T14:12:15.898Z,27.37
2022-08-29T14:14:43.981Z,27.55
2022-08-29T14:17:11.258Z,26.79
2022-08-29T14:19:45.116Z,26.65
2022-08-29T14:22:11.534Z,26.75
2022-08-29T14:24:38.678Z,26.38
2022-08-29T14:27:05.468Z,26.55
2022-08-29T14:29:34.029Z,26.69
2022-08-29T14:32:02.770Z,26.50
2022-08-29T14:34:32.627Z,26.61
2022-08-29T14:37:02.417Z,26.35
2022-08-29T14:39:29.578Z,25.56
2022-08-29T14:41:56.270Z,25.97
2022-08-29T14:44:23.485Z,26.15
2022-08-29T14:46:51.124Z,26.02
2022-08-29T14:49:18.842Z,26.37
2022-08-29T14:51:45.418Z,25.34
2022-08-29T14:54:12.647Z,25.63
2022-08-29T14:56:49.121Z,25.89
2022-08-29T14:59:16.937Z,25.82
2022-08-29T15:01:43.400Z,25.90
2022-08-29T15:04:11.074Z,25.93
2022-08-29T15:06:38.315Z,25.20
2022-08-29T15:09:05.009Z,25.44
2022-08-29T15:11:31.517Z,25.50
2022-08-29T15:14:03.545Z,25.57
2022-08-29T15:16:31.875Z,25.27
2022-08-29T15:21:44.786Z,25.56
2022-08-29T15:24:11.267Z,25.44
2022-08-29T15:26:38.084Z,25.12
2022-08-29T15:29:05.003Z,24.93
2022-08-29T15:31:31.477Z,24.53
2022-08-29T15:33:57.939Z,24.45
2022-08-29T15:36:24.367Z,24.37
2022-08-29T15:38:50.881Z,24.62
2022-08-29T15:41:17.292Z,24.93
2022-08-29T15:43:43.777Z,24.93
2022-08-29T15:46:11.037Z,25.07
2022-08-29T15:48:37.462Z,24.84
2022-08-29T15:51:04.199Z,24.97
2022-08-29T15:53:30.930Z,24.73
2022-08-29T15:55:57.447Z,24.75
2022-08-29T15:58:23.900Z,24.45
2022-08-29T16:00:50.767Z,24.74
2022-08-29T16:03:17.278Z,24.19
2022-08-29T16:05:43.933Z,24.48
2022-08-29T16:08:17.761Z,24.50
2022-08-29T16:10:45.863Z,24.66
2022-08-29T16:13:12.384Z,24.63
2022-08-29T16:15:38.908Z,24.61
2022-08-29T16:18:05.750Z,24.66
2022-08-29T16:20:32.651Z,24.71
2022-08-29T16:23:00.326Z,24.63
2022-08-29T16:25:27.240Z,24.61
2022-08-29T16:27:54.325Z,24.36
2022-08-29T16:30:21.122Z,24.36
2022-08-29T16:32:49.997Z,24.37
2022-08-29T16:35:17.042Z,24.58
2022-08-29T16:37:44.613Z,24.61
2022-08-29T16:40:13.490Z,24.51
2022-08-29T16:42:40.080Z,24.30
2022-08-29T16:45:09.806Z,24.49
2022-08-29T16:47:36.588Z,24.38
2022-08-29T16:50:04.694Z,24.26
2022-08-29T16:52:31.168Z,24.17
2022-08-29T16:54:58.175Z,24.25
2022-08-29T16:57:24.830Z,23.83
2022-08-29T16:59:51.208Z,23.83
2022-08-29T17:02:17.904Z,23.79
2022-08-29T17:04:46.540Z,23.95
2022-08-29T17:07:13.526Z,23.69
2022-08-29T17:09:39.936Z,23.78
2022-08-29T17:12:06.648Z,23.72
2022-08-29T17:14:33.477Z,23.82
2022-08-29T17:17:02.099Z,23.76
2022-08-29T17:19:29.212Z,23.75
2022-08-29T17:21:59.800Z,23.82
2022-08-29T17:24:26.360Z,23.72
2022-08-29T17:26:52.881Z,23.56
2022-08-29T17:29:19.343Z,23.56
2022-08-29T17:31:45.799Z,23.46
2022-08-29T17:34:12.740Z,23.49
2022-08-29T17:36:40.689Z,23.50
2022-08-29T17:39:07.900Z,23.33
2022-08-29T17:41:35.636Z,23.30
2022-08-29T17:44:02.339Z,23.26
2022-08-29T17:46:29.711Z,23.21
2022-08-29T17:48:56.381Z,23.08
2022-08-29T17:51:23.016Z,23.04
2022-08-29T17:53:50.892Z,23.03
2022-08-29T17:56:21.021Z,22.90
2022-08-29T17:58:48.119Z,22.81
2022-08-29T18:01:16.755Z,22.78
2022-08-29T18:03:44.947Z,22.68
2022-08-29T18:06:12.342Z,22.51
2022-08-29T18:08:41.280Z,22.51
2022-08-29T18:11:12.057Z,22.28
2022-08-29T18:13:38.792Z,21.96
2022-08-29T18:16:05.308Z,21.75
2022-08-29T18:18:32.566Z,21.35
2022-08-29T18:20:59.010Z,21.23
2022-08-29T18:23:25.639Z,21.27
2022-08-29T18:25:52.141Z,20.68
2022-08-29T18:28:19.045Z,20.56
2022-08-29T18:30:45.558Z,20.46
2022-08-29T18:33:12.941Z,20.26
2022-08-29T18:35:40.017Z,20.20
2022-08-29T18:38:07.763Z,19.87
2022-08-29T18:40:39.319Z,19.68
2022-08-29T18:43:07.162Z,19.70
2022-08-29T18:45:36.501Z,19.55
2022-08-29T18:48:03.719Z,19.46
2022-08-29T18:50:36.605Z,19.18
2022-08-29T18:53:13.801Z,19.05
2022-08-29T18:55:50.561Z,18.91
2022-08-29T18:58:24.576Z,18.74
2022-08-29T19:00:51.412Z,18.69
2022-08-29T19:03:18.275Z,18.61
2022-08-29T19:05:48.686Z,18.53
2022-08-29T19:08:17.088Z,18.46
2022-08-29T19:10:45.989Z,18.36
2022-08-29T19:13:13.529Z,18.19
2022-08-29T19:15:41.400Z,18.27
2022-08-29T19:18:10.692Z,18.04
2022-08-29T19:20:55.523Z,17.97
2022-08-29T19:23:22.573Z,17.86
2022-08-29T19:25:49.117Z,17.70
2022-08-29T19:28:17.077Z,17.64
2022-08-29T19:30:43.868Z,17.64
2022-08-29T19:33:10.847Z,17.63
2022-08-29T19:35:38.653Z,17.48
2022-08-29T19:38:07.290Z,17.36
2022-08-29T19:40:38.962Z,17.29
2022-08-29T19:43:13.530Z,17.12
2022-08-29T19:45:42.679Z,17.04
2022-08-29T19:48:14.902Z,16.93
2022-08-29T19:50:42.980Z,16.85
2022-08-29T19:53:20.004Z,16.81
2022-08-29T19:55:52.771Z,16.75
2022-08-29T19:58:19.337Z,16.62
2022-08-29T20:00:46.017Z,16.55
2022-08-29T20:03:12.600Z,16.48
2022-08-29T20:05:39.408Z,16.46
2022-08-29T20:08:06.245Z,16.37
2022-08-29T20:10:32.948Z,16.43
2022-08-29T20:13:00.081Z,16.24
2022-08-29T20:15:30.858Z,16.34
2022-08-29T20:17:59.102Z,16.17
2022-08-29T20:20:31.382Z,16.20
2022-08-29T20:22:57.856Z,16.10
2022-08-29T20:25:24.477Z,16.09
2022-08-29T20:27:52.273Z,16.03
2022-08-29T20:30:26.387Z,15.95
2022-08-29T20:32:53.305Z,15.84
2022-08-29T20:35:40.128Z,15.80
2022-08-29T20:38:07.380Z,15.75
2022-08-29T20:40:43.253Z,15.83
2022-08-29T20:43:09.742Z,15.83
2022-08-29T20:45:38.420Z,15.88
2022-08-29T20:48:05.415Z,15.88
2022-08-29T20:50:32.111Z,15.90
2022-08-29T20:52:58.550Z,15.61
2022-08-29T20:55:25.078Z,15.49
2022-08-29T20:57:51.640Z,15.47
2022-08-29T21:00:19.670Z,15.38
2022-08-29T21:03:05.727Z,15.44
2022-08-29T21:05:45.183Z,15.28
2022-08-29T21:08:20.327Z,15.23
2022-08-29T21:10:48.539Z,15.26
2022-08-29T21:13:16.695Z,15.23
2022-08-29T21:15:44.591Z,15.05
2022-08-29T21:18:13.241Z,15.00
2022-08-29T21:20:53.623Z,15.06
2022-08-29T21:23:24.269Z,15.00
2022-08-29T21:25:59.324Z,15.08
2022-08-29T21:28:27.494Z,15.04
2022-08-29T21:30:54.831Z,14.94
2022-08-29T21:33:22.202Z,15.00
2022-08-29T21:35:49.768Z,14.96
2022-08-29T21:38:16.665Z,14.78
2022-08-29T21:40:50.927Z,14.81
2022-08-29T21:43:19.472Z,14.69
2022-08-29T21:45:45.965Z,14.69
2022-08-29T21:48:12.402Z,14.62
2022-08-29T21:50:38.921Z,14.61
2022-08-29T21:53:05.661Z,14.74
2022-08-29T21:55:32.951Z,14.75
2022-08-29T21:58:00.571Z,14.54
2022-08-29T22:00:32.499Z,14.58
2022-08-29T22:03:01.461Z,14.65
2022-08-29T22:05:30.916Z,14.68
2022-08-29T22:07:58.382Z,14.60
2022-08-29T22:10:30.551Z,14.66
2022-08-29T22:12:57.525Z,14.58
2022-08-29T22:15:43.368Z,14.54
2022-08-29T22:18:10.775Z,14.51
2022-08-29T22:20:38.350Z,14.32
2022-08-29T22:23:05.595Z,14.40
2022-08-29T22:25:32.327Z,14.31
2022-08-29T22:27:58.858Z,14.37
2022-08-29T22:30:32.111Z,14.43
2022-08-29T22:33:00.091Z,14.36
2022-08-29T22:35:27.570Z,14.29
2022-08-29T22:37:54.591Z,14.32
2022-08-29T22:40:21.419Z,14.21
2022-08-29T22:42:47.938Z,14.16
2022-08-29T22:45:16.715Z,14.06
2022-08-29T22:47:43.993Z,14.05
2022-08-29T22:50:15.620Z,14.04
2022-08-29T22:52:42.185Z,13.94
2022-08-29T22:55:13.373Z,13.78
2022-08-29T22:57:41.964Z,13.79
2022-08-29T23:00:09.533Z,13.70
2022-08-29T23:02:36.012Z,13.73
2022-08-29T23:05:06.366Z,13.73
2022-08-29T23:07:35.704Z,13.81
2022-08-29T23:10:03.365Z,13.64
2022-08-29T23:12:30.016Z,13.62
2022-08-29T23:14:56.467Z,13.45
2022-08-29T23:17:22.908Z,13.45
2022-08-29T23:19:49.818Z,13.40
2022-08-29T23:22:17.978Z,13.46
2022-08-29T23:24:57.623Z,13.51
2022-08-29T23:27:29.142Z,13.52
2022-08-29T23:29:55.831Z,13.51
2022-08-29T23:32:22.499Z,13.42
2022-08-29T23:34:48.910Z,13.43
2022-08-29T23:37:15.368Z,13.40
2022-08-29T23:39:41.748Z,13.39
2022-08-29T23:42:08.310Z,13.43
2022-08-29T23:44:35.755Z,13.27
2022-08-29T23:47:02.184Z,13.29
2022-08-29T23:49:28.610Z,13.30
2022-08-29T23:51:55.059Z,13.25
2022-08-29T23:54:21.534Z,13.18
2022-08-29T23:56:47.944Z,13.07
2022-08-29T23:59:34.310Z,12.98
